sensor_id;sensor_type;location;lat;lon;timestamp;pressure;altitude;pressure_sealevel;temperature;humidity
20115;BME280;10218;42.874;25.320;2023-09-18T00:00:34;97684.97;;;17.27;100.00
20115;BME280;10218;42.874;25.320;2023-09-18T00:03:02;97687.50;;;17.35;100.00
20115;BME280;10218;42.874;25.320;2023-09-18T00:05:30;97689.59;;;17.40;100.00
20115;BME280;10218;42.874;25.320;2023-09-18T00:07:58;97682.50;;;17.26;100.00
20115;BME280;10218;42.874;25.320;2023-09-18T00:10:26;97684.03;;;17.00;100.00
20115;BME280;10218;42.874;25.320;2023-09-18T00:12:53;97684.81;;;16.94;100.00
20115;BME280;10218;42.874;25.320;2023-09-18T00:15:20;97687.94;;;16.98;100.00
20115;BME280;10218;42.874;25.320;2023-09-18T00:17:48;97682.78;;;16.96;100.00
20115;BME280;10218;42.874;25.320;2023-09-18T00:20:15;97673.44;;;16.99;100.00
20115;BME280;10218;42.874;25.320;2023-09-18T00:22:44;97677.37;;;17.03;100.00
20115;BME280;10218;42.874;25.320;2023-09-18T00:25:11;97678.50;;;17.15;100.00
20115;BME280;10218;42.874;25.320;2023-09-18T00:27:38;97675.41;;;17.25;100.00
20115;BME280;10218;42.874;25.320;2023-09-18T00:30:06;97681.34;;;17.00;100.00
20115;BME280;10218;42.874;25.320;2023-09-18T00:32:34;97679.44;;;16.94;100.00
20115;BME280;10218;42.874;25.320;2023-09-18T00:35:01;97671.75;;;16.91;100.00
20115;BME280;10218;42.874;25.320;2023-09-18T00:37:29;97674.03;;;16.94;100.00
20115;BME280;10218;42.874;25.320;2023-09-18T00:39:56;97674.53;;;17.11;100.00
20115;BME280;10218;42.874;25.320;2023-09-18T00:42:24;97668.59;;;16.88;100.00
20115;BME280;10218;42.874;25.320;2023-09-18T00:44:51;97673.16;;;16.87;100.00
20115;BME280;10218;42.874;25.320;2023-09-18T00:47:19;97676.75;;;16.66;100.00
20115;BME280;10218;42.874;25.320;2023-09-18T00:49:48;97670.44;;;16.87;100.00
20115;BME280;10218;42.874;25.320;2023-09-18T00:52:17;97674.50;;;17.04;100.00
20115;BME280;10218;42.874;25.320;2023-09-18T00:54:46;97668.16;;;16.84;100.00
20115;BME280;10218;42.874;25.320;2023-09-18T00:57:14;97669.37;;;16.82;100.00
20115;BME280;10218;42.874;25.320;2023-09-18T00:59:42;97667.56;;;16.89;100.00
20115;BME280;10218;42.874;25.320;2023-09-18T01:02:09;97663.22;;;16.94;100.00
20115;BME280;10218;42.874;25.320;2023-09-18T01:04:37;97667.75;;;16.87;100.00
20115;BME280;10218;42.874;25.320;2023-09-18T01:07:04;97667.72;;;17.22;100.00
20115;BME280;10218;42.874;25.320;2023-09-18T01:09:32;97670.44;;;17.28;100.00
20115;BME280;10218;42.874;25.320;2023-09-18T01:12:32;97662.09;;;17.23;100.00
20115;BME280;10218;42.874;25.320;2023-09-18T01:15:19;97651.72;;;17.20;100.00
20115;BME280;10218;42.874;25.320;2023-09-18T01:17:48;97662.59;;;16.92;100.00
20115;BME280;10218;42.874;25.320;2023-09-18T01:20:15;97657.09;;;16.73;100.00
20115;BME280;10218;42.874;25.320;2023-09-18T01:22:42;97663.97;;;17.23;100.00
20115;BME280;10218;42.874;25.320;2023-09-18T01:25:10;97662.91;;;17.17;100.00
20115;BME280;10218;42.874;25.320;2023-09-18T01:27:37;97655.88;;;17.16;100.00
20115;BME280;10218;42.874;25.320;2023-09-18T01:30:05;97658.16;;;16.78;100.00
20115;BME280;10218;42.874;25.320;2023-09-18T01:32:34;97657.53;;;17.24;100.00
20115;BME280;10218;42.874;25.320;2023-09-18T01:35:04;97654.97;;;16.68;100.00
20115;BME280;10218;42.874;25.320;2023-09-18T01:37:34;97647.66;;;16.90;100.00
20115;BME280;10218;42.874;25.320;2023-09-18T01:40:04;97648.94;;;16.59;100.00
20115;BME280;10218;42.874;25.320;2023-09-18T01:42:34;97652.19;;;17.30;100.00
20115;BME280;10218;42.874;25.320;2023-09-18T01:45:02;97657.12;;;17.20;100.00
20115;BME280;10218;42.874;25.320;2023-09-18T01:47:32;97654.31;;;16.59;100.00
20115;BME280;10218;42.874;25.320;2023-09-18T01:50:03;97670.66;;;16.58;100.00
20115;BME280;10218;42.874;25.320;2023-09-18T01:52:32;97662.91;;;16.48;100.00
20115;BME280;10218;42.874;25.320;2023-09-18T01:54:59;97668.47;;;16.40;100.00
20115;BME280;10218;42.874;25.320;2023-09-18T01:57:26;97672.41;;;16.65;100.00
20115;BME280;10218;42.874;25.320;2023-09-18T01:59:53;97670.50;;;16.59;100.00
20115;BME280;10218;42.874;25.320;2023-09-18T02:02:22;97658.94;;;16.72;100.00
20115;BME280;10218;42.874;25.320;2023-09-18T02:04:49;97673.31;;;16.51;100.00
20115;BME280;10218;42.874;25.320;2023-09-18T02:07:16;97672.47;;;16.23;100.00
20115;BME280;10218;42.874;25.320;2023-09-18T02:09:43;97675.56;;;16.48;100.00
20115;BME280;10218;42.874;25.320;2023-09-18T02:12:11;97681.91;;;16.34;100.00
20115;BME280;10218;42.874;25.320;2023-09-18T02:14:45;97683.69;;;15.99;100.00
20115;BME280;10218;42.874;25.320;2023-09-18T02:17:12;97673.63;;;16.35;100.00
20115;BME280;10218;42.874;25.320;2023-09-18T02:19:40;97678.53;;;16.25;100.00
20115;BME280;10218;42.874;25.320;2023-09-18T02:22:07;97683.59;;;16.41;100.00
20115;BME280;10218;42.874;25.320;2023-09-18T02:24:34;97676.09;;;16.37;100.00
20115;BME280;10218;42.874;25.320;2023-09-18T02:27:04;97678.81;;;16.09;100.00
20115;BME280;10218;42.874;25.320;2023-09-18T02:29:32;97677.91;;;16.02;100.00
20115;BME280;10218;42.874;25.320;2023-09-18T02:31:59;97687.06;;;16.07;100.00
20115;BME280;10218;42.874;25.320;2023-09-18T02:34:26;97673.91;;;16.19;100.00
20115;BME280;10218;42.874;25.320;2023-09-18T02:36:53;97683.19;;;16.16;100.00
20115;BME280;10218;42.874;25.320;2023-09-18T02:39:21;97667.03;;;16.16;100.00
20115;BME280;10218;42.874;25.320;2023-09-18T02:41:49;97681.44;;;16.02;100.00
20115;BME280;10218;42.874;25.320;2023-09-18T02:44:16;97673.69;;;16.20;100.00
20115;BME280;10218;42.874;25.320;2023-09-18T02:46:44;97681.56;;;15.94;100.00
20115;BME280;10218;42.874;25.320;2023-09-18T02:49:11;97674.34;;;16.01;100.00
20115;BME280;10218;42.874;25.320;2023-09-18T02:51:38;97684.78;;;15.83;100.00
20115;BME280;10218;42.874;25.320;2023-09-18T02:54:06;97692.09;;;15.89;100.00
20115;BME280;10218;42.874;25.320;2023-09-18T02:56:33;97693.69;;;16.05;100.00
20115;BME280;10218;42.874;25.320;2023-09-18T02:59:00;97694.13;;;16.08;100.00
20115;BME280;10218;42.874;25.320;2023-09-18T03:01:27;97695.47;;;15.98;100.00
20115;BME280;10218;42.874;25.320;2023-09-18T03:03:54;97692.59;;;15.78;100.00
20115;BME280;10218;42.874;25.320;2023-09-18T03:06:21;97694.47;;;15.77;100.00
20115;BME280;10218;42.874;25.320;2023-09-18T03:08:49;97703.56;;;15.76;100.00
20115;BME280;10218;42.874;25.320;2023-09-18T03:11:16;97701.19;;;15.88;100.00
20115;BME280;10218;42.874;25.320;2023-09-18T03:13:47;97697.00;;;15.86;100.00
20115;BME280;10218;42.874;25.320;2023-09-18T03:16:14;97705.75;;;15.88;100.00
20115;BME280;10218;42.874;25.320;2023-09-18T03:18:42;97699.06;;;15.62;100.00
20115;BME280;10218;42.874;25.320;2023-09-18T03:21:09;97705.09;;;15.86;100.00
20115;BME280;10218;42.874;25.320;2023-09-18T03:23:36;97699.97;;;15.69;100.00
20115;BME280;10218;42.874;25.320;2023-09-18T03:26:03;97709.22;;;15.81;100.00
20115;BME280;10218;42.874;25.320;2023-09-18T03:28:30;97702.28;;;15.94;100.00
20115;BME280;10218;42.874;25.320;2023-09-18T03:30:58;97700.81;;;15.91;100.00
20115;BME280;10218;42.874;25.320;2023-09-18T03:33:26;97701.03;;;15.75;100.00
20115;BME280;10218;42.874;25.320;2023-09-18T03:35:53;97705.41;;;15.76;100.00
20115;BME280;10218;42.874;25.320;2023-09-18T03:38:22;97706.00;;;15.93;100.00
20115;BME280;10218;42.874;25.320;2023-09-18T03:40:49;97704.56;;;15.75;100.00
20115;BME280;10218;42.874;25.320;2023-09-18T03:43:16;97711.72;;;15.83;100.00
20115;BME280;10218;42.874;25.320;2023-09-18T03:45:44;97719.78;;;15.62;100.00
20115;BME280;10218;42.874;25.320;2023-09-18T03:48:12;97708.06;;;15.69;100.00
20115;BME280;10218;42.874;25.320;2023-09-18T03:50:39;97719.16;;;15.81;100.00
20115;BME280;10218;42.874;25.320;2023-09-18T03:53:07;97714.16;;;15.78;100.00
20115;BME280;10218;42.874;25.320;2023-09-18T03:55:34;97723.44;;;15.75;100.00
20115;BME280;10218;42.874;25.320;2023-09-18T03:58:01;97722.41;;;15.76;100.00
20115;BME280;10218;42.874;25.320;2023-09-18T04:00:28;97717.59;;;15.72;100.00
20115;BME280;10218;42.874;25.320;2023-09-18T04:02:56;97713.19;;;15.64;100.00
20115;BME280;10218;42.874;25.320;2023-09-18T04:05:24;97715.25;;;15.83;100.00
20115;BME280;10218;42.874;25.320;2023-09-18T04:07:51;97704.72;;;15.89;100.00
20115;BME280;10218;42.874;25.320;2023-09-18T04:10:19;97708.03;;;16.12;100.00
20115;BME280;10218;42.874;25.320;2023-09-18T04:12:50;97713.69;;;15.96;100.00
20115;BME280;10218;42.874;25.320;2023-09-18T04:15:20;97713.06;;;16.15;100.00
20115;BME280;10218;42.874;25.320;2023-09-18T04:17:48;97708.69;;;16.63;100.00
20115;BME280;10218;42.874;25.320;2023-09-18T04:20:16;97719.81;;;16.04;100.00
20115;BME280;10218;42.874;25.320;2023-09-18T04:22:46;97709.78;;;16.19;100.00
20115;BME280;10218;42.874;25.320;2023-09-18T04:25:16;97723.44;;;16.18;100.00
20115;BME280;10218;42.874;25.320;2023-09-18T04:27:44;97719.00;;;16.32;100.00
20115;BME280;10218;42.874;25.320;2023-09-18T04:30:11;97717.31;;;16.03;100.00
20115;BME280;10218;42.874;25.320;2023-09-18T04:32:38;97721.41;;;15.99;100.00
20115;BME280;10218;42.874;25.320;2023-09-18T04:35:06;97731.78;;;16.02;100.00
20115;BME280;10218;42.874;25.320;2023-09-18T04:37:37;97724.28;;;16.18;100.00
20115;BME280;10218;42.874;25.320;2023-09-18T04:40:06;97713.03;;;16.36;100.00
20115;BME280;10218;42.874;25.320;2023-09-18T04:42:38;97724.13;;;16.26;100.00
20115;BME280;10218;42.874;25.320;2023-09-18T04:45:07;97730.84;;;16.09;100.00
20115;BME280;10218;42.874;25.320;2023-09-18T04:47:34;97714.13;;;16.20;100.00
20115;BME280;10218;42.874;25.320;2023-09-18T04:50:01;97715.69;;;16.57;100.00
20115;BME280;10218;42.874;25.320;2023-09-18T04:52:33;97716.09;;;16.54;100.00
20115;BME280;10218;42.874;25.320;2023-09-18T04:55:00;97722.09;;;16.78;100.00
20115;BME280;10218;42.874;25.320;2023-09-18T04:57:27;97712.00;;;16.86;100.00
20115;BME280;10218;42.874;25.320;2023-09-18T04:59:54;97725.03;;;16.83;100.00
20115;BME280;10218;42.874;25.320;2023-09-18T05:02:27;97715.13;;;16.90;100.00
20115;BME280;10218;42.874;25.320;2023-09-18T05:04:55;97725.03;;;16.83;100.00
20115;BME280;10218;42.874;25.320;2023-09-18T05:07:22;97717.44;;;16.65;100.00
20115;BME280;10218;42.874;25.320;2023-09-18T05:09:50;97732.53;;;17.22;100.00
20115;BME280;10218;42.874;25.320;2023-09-18T05:12:17;97723.13;;;17.11;100.00
20115;BME280;10218;42.874;25.320;2023-09-18T05:14:44;97732.63;;;17.41;100.00
20115;BME280;10218;42.874;25.320;2023-09-18T05:17:14;97722.59;;;17.29;100.00
20115;BME280;10218;42.874;25.320;2023-09-18T05:19:43;97727.84;;;17.43;100.00
20115;BME280;10218;42.874;25.320;2023-09-18T05:22:10;97729.72;;;17.97;100.00
20115;BME280;10218;42.874;25.320;2023-09-18T05:24:40;97715.16;;;17.91;100.00
20115;BME280;10218;42.874;25.320;2023-09-18T05:27:07;97745.13;;;18.10;100.00
20115;BME280;10218;42.874;25.320;2023-09-18T05:29:34;97728.09;;;18.22;100.00
20115;BME280;10218;42.874;25.320;2023-09-18T05:32:03;97732.88;;;18.47;100.00
20115;BME280;10218;42.874;25.320;2023-09-18T05:34:30;97721.00;;;18.87;100.00
20115;BME280;10218;42.874;25.320;2023-09-18T05:36:58;97732.25;;;18.38;100.00
20115;BME280;10218;42.874;25.320;2023-09-18T05:39:26;97731.47;;;18.64;100.00
20115;BME280;10218;42.874;25.320;2023-09-18T05:41:53;97728.56;;;18.59;100.00
20115;BME280;10218;42.874;25.320;2023-09-18T05:44:20;97739.16;;;18.73;100.00
20115;BME280;10218;42.874;25.320;2023-09-18T05:46:47;97728.06;;;18.95;100.00
20115;BME280;10218;42.874;25.320;2023-09-18T05:49:14;97732.00;;;19.05;100.00
20115;BME280;10218;42.874;25.320;2023-09-18T05:51:41;97734.16;;;18.84;100.00
20115;BME280;10218;42.874;25.320;2023-09-18T05:54:09;97733.03;;;19.11;100.00
20115;BME280;10218;42.874;25.320;2023-09-18T05:56:36;97742.00;;;19.05;100.00
20115;BME280;10218;42.874;25.320;2023-09-18T05:59:03;97730.06;;;19.39;100.00
20115;BME280;10218;42.874;25.320;2023-09-18T06:01:30;97725.09;;;19.22;100.00
20115;BME280;10218;42.874;25.320;2023-09-18T06:03:58;97731.09;;;19.38;100.00
20115;BME280;10218;42.874;25.320;2023-09-18T06:06:25;97730.56;;;19.67;100.00
20115;BME280;10218;42.874;25.320;2023-09-18T06:08:52;97730.25;;;19.31;100.00
20115;BME280;10218;42.874;25.320;2023-09-18T06:11:22;97731.16;;;19.11;100.00
20115;BME280;10218;42.874;25.320;2023-09-18T06:13:52;97729.19;;;19.51;100.00
20115;BME280;10218;42.874;25.320;2023-09-18T06:16:19;97715.63;;;19.96;100.00
20115;BME280;10218;42.874;25.320;2023-09-18T06:18:46;97733.19;;;19.87;100.00
20115;BME280;10218;42.874;25.320;2023-09-18T06:21:13;97732.69;;;20.03;100.00
20115;BME280;10218;42.874;25.320;2023-09-18T06:23:40;97738.66;;;20.12;100.00
20115;BME280;10218;42.874;25.320;2023-09-18T06:26:08;97726.03;;;20.62;100.00
20115;BME280;10218;42.874;25.320;2023-09-18T06:28:35;97726.50;;;20.52;100.00
20115;BME280;10218;42.874;25.320;2023-09-18T06:31:02;97733.69;;;20.46;100.00
20115;BME280;10218;42.874;25.320;2023-09-18T06:33:29;97736.38;;;20.71;100.00
20115;BME280;10218;42.874;25.320;2023-09-18T06:35:56;97730.56;;;20.92;100.00
20115;BME280;10218;42.874;25.320;2023-09-18T06:38:23;97724.50;;;21.52;100.00
20115;BME280;10218;42.874;25.320;2023-09-18T06:40:51;97732.53;;;21.95;100.00
20115;BME280;10218;42.874;25.320;2023-09-18T06:43:19;97731.88;;;21.45;100.00
20115;BME280;10218;42.874;25.320;2023-09-18T06:45:45;97740.72;;;21.22;100.00
20115;BME280;10218;42.874;25.320;2023-09-18T06:48:13;97736.47;;;21.08;100.00
20115;BME280;10218;42.874;25.320;2023-09-18T06:50:41;97736.34;;;21.39;100.00
20115;BME280;10218;42.874;25.320;2023-09-18T06:53:07;97745.19;;;22.19;100.00
20115;BME280;10218;42.874;25.320;2023-09-18T06:55:36;97739.44;;;21.43;100.00
20115;BME280;10218;42.874;25.320;2023-09-18T06:58:03;97742.03;;;22.04;100.00
20115;BME280;10218;42.874;25.320;2023-09-18T07:00:30;97723.84;;;22.16;100.00
20115;BME280;10218;42.874;25.320;2023-09-18T07:02:57;97743.50;;;22.18;100.00
20115;BME280;10218;42.874;25.320;2023-09-18T07:05:24;97742.69;;;22.17;100.00
20115;BME280;10218;42.874;25.320;2023-09-18T07:07:51;97742.72;;;23.40;100.00
20115;BME280;10218;42.874;25.320;2023-09-18T07:10:18;97745.41;;;23.64;100.00
20115;BME280;10218;42.874;25.320;2023-09-18T07:12:45;97742.34;;;23.60;100.00
20115;BME280;10218;42.874;25.320;2023-09-18T07:15:12;97741.75;;;23.35;100.00
20115;BME280;10218;42.874;25.320;2023-09-18T07:17:39;97739.38;;;23.38;100.00
20115;BME280;10218;42.874;25.320;2023-09-18T07:20:07;97749.06;;;23.81;100.00
20115;BME280;10218;42.874;25.320;2023-09-18T07:22:45;97743.75;;;23.63;100.00
20115;BME280;10218;42.874;25.320;2023-09-18T07:25:12;97744.34;;;22.72;100.00
20115;BME280;10218;42.874;25.320;2023-09-18T07:27:39;97736.56;;;23.57;100.00
20115;BME280;10218;42.874;25.320;2023-09-18T07:30:12;97744.44;;;23.81;100.00
20115;BME280;10218;42.874;25.320;2023-09-18T07:32:40;97740.66;;;25.06;100.00
20115;BME280;10218;42.874;25.320;2023-09-18T07:35:07;97737.94;;;24.89;100.00
20115;BME280;10218;42.874;25.320;2023-09-18T07:37:35;97746.22;;;23.76;100.00
20115;BME280;10218;42.874;25.320;2023-09-18T07:40:06;97740.81;;;23.29;100.00
20115;BME280;10218;42.874;25.320;2023-09-18T07:42:34;97744.66;;;24.08;100.00
20115;BME280;10218;42.874;25.320;2023-09-18T07:45:01;97737.31;;;23.80;100.00
20115;BME280;10218;42.874;25.320;2023-09-18T07:47:28;97753.25;;;24.57;100.00
20115;BME280;10218;42.874;25.320;2023-09-18T07:49:57;97733.34;;;24.45;100.00
20115;BME280;10218;42.874;25.320;2023-09-18T07:52:24;97740.81;;;23.93;100.00
20115;BME280;10218;42.874;25.320;2023-09-18T07:54:51;97741.09;;;24.98;100.00
20115;BME280;10218;42.874;25.320;2023-09-18T07:57:18;97746.03;;;23.94;100.00
20115;BME280;10218;42.874;25.320;2023-09-18T07:59:46;97733.00;;;25.25;100.00
20115;BME280;10218;42.874;25.320;2023-09-18T08:02:13;97749.84;;;24.66;100.00
20115;BME280;10218;42.874;25.320;2023-09-18T08:04:41;97759.81;;;24.27;100.00
20115;BME280;10218;42.874;25.320;2023-09-18T08:07:09;97750.69;;;25.55;98.56
20115;BME280;10218;42.874;25.320;2023-09-18T08:09:37;97745.25;;;25.77;82.55
20115;BME280;10218;42.874;25.320;2023-09-18T08:12:05;97749.47;;;26.33;77.26
20115;BME280;10218;42.874;25.320;2023-09-18T08:14:33;97731.81;;;26.83;94.69
20115;BME280;10218;42.874;25.320;2023-09-18T08:17:03;97740.06;;;26.24;82.51
20115;BME280;10218;42.874;25.320;2023-09-18T08:19:31;97743.09;;;25.79;76.46
20115;BME280;10218;42.874;25.320;2023-09-18T08:21:59;97740.53;;;25.94;70.99
20115;BME280;10218;42.874;25.320;2023-09-18T08:24:30;97733.47;;;26.52;69.80
20115;BME280;10218;42.874;25.320;2023-09-18T08:26:58;97722.59;;;26.62;76.71
20115;BME280;10218;42.874;25.320;2023-09-18T08:29:25;97724.34;;;26.73;68.72
20115;BME280;10218;42.874;25.320;2023-09-18T08:31:52;97724.31;;;27.00;71.84
20115;BME280;10218;42.874;25.320;2023-09-18T08:34:19;97714.75;;;27.08;69.35
20115;BME280;10218;42.874;25.320;2023-09-18T08:36:47;97714.16;;;26.96;63.40
20115;BME280;10218;42.874;25.320;2023-09-18T08:39:15;97717.13;;;27.31;61.73
20115;BME280;10218;42.874;25.320;2023-09-18T08:41:43;97713.47;;;27.62;57.43
20115;BME280;10218;42.874;25.320;2023-09-18T08:44:12;97698.97;;;26.51;61.56
20115;BME280;10218;42.874;25.320;2023-09-18T08:46:41;97711.44;;;27.43;55.75
20115;BME280;10218;42.874;25.320;2023-09-18T08:49:08;97709.44;;;27.85;58.95
20115;BME280;10218;42.874;25.320;2023-09-18T08:51:35;97711.50;;;28.45;58.87
20115;BME280;10218;42.874;25.320;2023-09-18T08:54:04;97700.84;;;27.67;57.38
20115;BME280;10218;42.874;25.320;2023-09-18T08:56:33;97702.59;;;27.88;59.71
20115;BME280;10218;42.874;25.320;2023-09-18T08:59:01;97700.69;;;27.36;57.24
20115;BME280;10218;42.874;25.320;2023-09-18T09:01:28;97695.50;;;28.07;57.84
20115;BME280;10218;42.874;25.320;2023-09-18T09:03:55;97689.72;;;28.03;53.50
20115;BME280;10218;42.874;25.320;2023-09-18T09:06:25;97690.81;;;28.02;54.07
20115;BME280;10218;42.874;25.320;2023-09-18T09:08:52;97700.72;;;28.03;49.36
20115;BME280;10218;42.874;25.320;2023-09-18T09:11:19;97699.37;;;28.16;40.94
20115;BME280;10218;42.874;25.320;2023-09-18T09:13:46;97704.66;;;28.58;42.23
20115;BME280;10218;42.874;25.320;2023-09-18T09:16:17;97696.69;;;28.46;46.53
20115;BME280;10218;42.874;25.320;2023-09-18T09:18:50;97692.84;;;28.93;45.08
20115;BME280;10218;42.874;25.320;2023-09-18T09:21:18;97692.28;;;28.61;43.81
20115;BME280;10218;42.874;25.320;2023-09-18T09:23:50;97693.44;;;28.80;48.89
20115;BME280;10218;42.874;25.320;2023-09-18T09:26:22;97695.03;;;28.45;47.39
20115;BME280;10218;42.874;25.320;2023-09-18T09:28:49;97677.78;;;29.75;41.71
20115;BME280;10218;42.874;25.320;2023-09-18T09:31:30;97681.22;;;28.10;44.59
20115;BME280;10218;42.874;25.320;2023-09-18T09:33:57;97678.84;;;29.89;45.82
20115;BME280;10218;42.874;25.320;2023-09-18T09:36:25;97678.81;;;29.05;45.14
20115;BME280;10218;42.874;25.320;2023-09-18T09:38:55;97680.25;;;29.71;43.79
20115;BME280;10218;42.874;25.320;2023-09-18T09:41:26;97674.69;;;29.02;41.03
20115;BME280;10218;42.874;25.320;2023-09-18T09:43:58;97677.47;;;30.36;39.85
20115;BME280;10218;42.874;25.320;2023-09-18T09:46:25;97679.81;;;30.13;41.85
20115;BME280;10218;42.874;25.320;2023-09-18T09:51:26;97682.66;;;30.47;38.75
20115;BME280;10218;42.874;25.320;2023-09-18T09:53:53;97671.69;;;28.58;43.48
20115;BME280;10218;42.874;25.320;2023-09-18T09:56:20;97672.50;;;28.94;48.01
20115;BME280;10218;42.874;25.320;2023-09-18T09:59:01;97665.28;;;29.33;43.70
20115;BME280;10218;42.874;25.320;2023-09-18T10:01:35;97673.41;;;29.69;41.96
20115;BME280;10218;42.874;25.320;2023-09-18T10:04:05;97674.56;;;29.58;47.37
20115;BME280;10218;42.874;25.320;2023-09-18T10:06:36;97674.09;;;29.36;42.69
20115;BME280;10218;42.874;25.320;2023-09-18T10:09:04;97669.31;;;30.15;43.98
20115;BME280;10218;42.874;25.320;2023-09-18T10:11:39;97667.16;;;29.48;42.26
20115;BME280;10218;42.874;25.320;2023-09-18T10:14:14;97659.78;;;29.98;41.92
20115;BME280;10218;42.874;25.320;2023-09-18T10:16:48;97657.66;;;31.25;40.14
20115;BME280;10218;42.874;25.320;2023-09-18T10:19:45;97658.31;;;31.65;39.90
20115;BME280;10218;42.874;25.320;2023-09-18T10:22:34;97647.25;;;30.21;40.64
20115;BME280;10218;42.874;25.320;2023-09-18T10:25:11;97658.00;;;30.61;42.44
20115;BME280;10218;42.874;25.320;2023-09-18T10:27:40;97662.00;;;31.08;38.94
20115;BME280;10218;42.874;25.320;2023-09-18T10:30:09;97658.97;;;31.33;39.86
20115;BME280;10218;42.874;25.320;2023-09-18T10:32:39;97663.94;;;31.78;35.53
20115;BME280;10218;42.874;25.320;2023-09-18T10:35:07;97651.13;;;31.16;38.85
20115;BME280;10218;42.874;25.320;2023-09-18T10:37:36;97655.31;;;31.37;38.84
20115;BME280;10218;42.874;25.320;2023-09-18T10:40:08;97660.50;;;30.86;36.35
20115;BME280;10218;42.874;25.320;2023-09-18T10:42:41;97640.56;;;29.03;38.13
20115;BME280;10218;42.874;25.320;2023-09-18T10:45:10;97650.09;;;29.46;41.59
20115;BME280;10218;42.874;25.320;2023-09-18T10:47:43;97643.56;;;30.69;39.86
20115;BME280;10218;42.874;25.320;2023-09-18T10:50:12;97646.37;;;31.46;38.87
20115;BME280;10218;42.874;25.320;2023-09-18T10:52:43;97649.91;;;31.51;37.31
20115;BME280;10218;42.874;25.320;2023-09-18T10:55:12;97640.41;;;31.38;36.17
20115;BME280;10218;42.874;25.320;2023-09-18T10:57:54;97641.97;;;32.30;37.27
20115;BME280;10218;42.874;25.320;2023-09-18T11:00:24;97642.62;;;32.40;35.01
20115;BME280;10218;42.874;25.320;2023-09-18T11:02:52;97633.03;;;30.76;37.49
20115;BME280;10218;42.874;25.320;2023-09-18T11:05:32;97632.03;;;31.20;36.33
20115;BME280;10218;42.874;25.320;2023-09-18T11:11:10;97628.34;;;30.38;40.15
20115;BME280;10218;42.874;25.320;2023-09-18T11:13:51;97630.28;;;30.42;36.61
20115;BME280;10218;42.874;25.320;2023-09-18T11:21:27;97620.75;;;30.58;38.33
20115;BME280;10218;42.874;25.320;2023-09-18T11:26:36;97622.97;;;30.23;35.49
20115;BME280;10218;42.874;25.320;2023-09-18T11:29:06;97627.72;;;31.56;35.08
20115;BME280;10218;42.874;25.320;2023-09-18T11:34:19;97627.00;;;32.12;35.44
20115;BME280;10218;42.874;25.320;2023-09-18T11:36:47;97617.94;;;32.44;34.94
20115;BME280;10218;42.874;25.320;2023-09-18T11:39:36;97610.38;;;28.37;39.42
20115;BME280;10218;42.874;25.320;2023-09-18T11:42:09;97610.69;;;27.38;44.41
20115;BME280;10218;42.874;25.320;2023-09-18T11:44:38;97611.31;;;30.93;39.77
20115;BME280;10218;42.874;25.320;2023-09-18T11:47:10;97601.03;;;30.99;38.36
20115;BME280;10218;42.874;25.320;2023-09-18T11:50:02;97601.19;;;30.60;38.37
20115;BME280;10218;42.874;25.320;2023-09-18T11:52:30;97608.41;;;31.56;36.04
20115;BME280;10218;42.874;25.320;2023-09-18T11:54:59;97606.66;;;32.40;35.56
20115;BME280;10218;42.874;25.320;2023-09-18T11:57:27;97604.16;;;32.90;35.49
20115;BME280;10218;42.874;25.320;2023-09-18T11:59:55;97595.81;;;33.36;34.06
20115;BME280;10218;42.874;25.320;2023-09-18T12:02:28;97596.31;;;31.95;34.64
20115;BME280;10218;42.874;25.320;2023-09-18T12:04:55;97588.06;;;33.87;32.45
20115;BME280;10218;42.874;25.320;2023-09-18T12:07:23;97582.22;;;33.07;33.82
20115;BME280;10218;42.874;25.320;2023-09-18T12:09:51;97589.00;;;32.36;36.29
20115;BME280;10218;42.874;25.320;2023-09-18T12:12:21;97577.44;;;32.66;33.90
20115;BME280;10218;42.874;25.320;2023-09-18T12:14:49;97585.87;;;32.43;34.20
20115;BME280;10218;42.874;25.320;2023-09-18T12:17:16;97585.87;;;31.49;36.47
20115;BME280;10218;42.874;25.320;2023-09-18T12:19:53;97579.69;;;31.57;36.71
20115;BME280;10218;42.874;25.320;2023-09-18T12:22:27;97586.38;;;32.77;34.90
20115;BME280;10218;42.874;25.320;2023-09-18T12:25:15;97588.81;;;32.33;34.92
20115;BME280;10218;42.874;25.320;2023-09-18T12:27:44;97583.69;;;33.18;34.35
20115;BME280;10218;42.874;25.320;2023-09-18T12:30:12;97577.72;;;33.11;35.17
20115;BME280;10218;42.874;25.320;2023-09-18T12:32:47;97567.88;;;33.32;32.87
20115;BME280;10218;42.874;25.320;2023-09-18T12:35:17;97578.94;;;34.09;32.70
20115;BME280;10218;42.874;25.320;2023-09-18T12:37:45;97575.81;;;33.25;31.76
20115;BME280;10218;42.874;25.320;2023-09-18T12:40:28;97580.16;;;32.99;33.99
20115;BME280;10218;42.874;25.320;2023-09-18T12:42:57;97579.72;;;31.95;33.56
20115;BME280;10218;42.874;25.320;2023-09-18T12:45:25;97572.88;;;32.43;35.14
20115;BME280;10218;42.874;25.320;2023-09-18T12:47:54;97576.94;;;31.57;35.82
20115;BME280;10218;42.874;25.320;2023-09-18T12:50:23;97572.81;;;33.35;34.20
20115;BME280;10218;42.874;25.320;2023-09-18T12:52:51;97558.78;;;33.32;33.42
20115;BME280;10218;42.874;25.320;2023-09-18T12:55:25;97570.34;;;33.47;32.93
20115;BME280;10218;42.874;25.320;2023-09-18T12:57:53;97561.91;;;32.52;35.23
20115;BME280;10218;42.874;25.320;2023-09-18T13:00:21;97561.41;;;32.96;34.40
20115;BME280;10218;42.874;25.320;2023-09-18T13:02:53;97559.34;;;33.42;33.75
20115;BME280;10218;42.874;25.320;2023-09-18T13:05:24;97562.13;;;33.70;33.24
20115;BME280;10218;42.874;25.320;2023-09-18T13:08:04;97557.75;;;33.41;32.83